Time;durP1;ratioP1;P1;durP2;ratioP2;P2;SDS_P1;SDS_P2;PMS_P1;PMS_P2;Temp;Humidity;BMP_temperature;BMP_pressure;BME280_temperature;BME280_humidity;BME280_pressure;Samples;Min_cycle;Max_cycle;Signal;HPM_P1;HPM_P2
2021/03/08 00:01:12;;;;;;;;;;;6.10;36.50;;;;;;6221704;23;19910;-82
2021/03/08 00:03:37;;;;;;;;;;;6.10;36.50;;;;;;6194221;23;19955;-83
2021/03/08 00:06:03;;;;;;;;;;;6.10;36.50;;;;;;6198280;23;19896;-83
2021/03/08 00:08:31;;;;;;;;;;;6.10;36.50;;;;;;6234683;23;19904;-83
2021/03/08 00:10:56;;;;;;;;;;;6.10;36.50;;;;;;6222720;23;20393;-83
2021/03/08 00:13:22;;;;;;;;;;;6.10;36.50;;;;;;6221273;23;19904;-83
2021/03/08 00:15:47;;;;;;;;;;;6.10;36.50;;;;;;6192766;23;19911;-82
2021/03/08 00:18:13;;;;;;;;;;;6.10;37.00;;;;;;6220129;23;19904;-82
2021/03/08 00:20:38;;;;;;;;;;;6.10;36.50;;;;;;6196116;23;19939;-83
2021/03/08 00:23:03;;;;;;;;;;;6.10;36.50;;;;;;6222047;23;19911;-83
2021/03/08 00:25:30;;;;;;;;;;;6.10;36.50;;;;;;6221830;23;19912;-83
2021/03/08 00:27:56;;;;;;;;;;;6.10;36.50;;;;;;6222748;23;19911;-83
2021/03/08 00:30:22;;;;;;;;;;;6.10;36.50;;;;;;6195753;23;19904;-84
2021/03/08 00:32:49;;;;;;;;;;;6.10;36.50;;;;;;6222591;23;19931;-82
2021/03/08 00:35:15;;;;;;;;;;;6.00;36.50;;;;;;6194975;23;20224;-83
2021/03/08 00:37:41;;;;;;;;;;;6.00;36.60;;;;;;6195383;23;19927;-83
2021/03/08 00:40:11;;;;;;;;;;;5.90;36.60;;;;;;6194921;23;19915;-83
2021/03/08 00:42:37;;;;;;;;;;;5.90;36.70;;;;;;6195801;23;20010;-83
2021/03/08 00:45:08;;;;;;;;;;;5.90;36.80;;;;;;6193832;23;19971;-83
2021/03/08 00:47:33;;;;;;;;;;;5.90;36.80;;;;;;6222142;23;19904;-84
2021/03/08 00:50:04;;;;;;;;;;;5.90;36.90;;;;;;6195706;23;19904;-83
2021/03/08 00:52:30;;;;;;;;;;;5.90;36.90;;;;;;6221247;23;19913;-82
2021/03/08 00:54:55;;;;;;;;;;;5.90;36.90;;;;;;6221925;23;19911;-83
2021/03/08 00:57:23;;;;;;;;;;;5.90;37.00;;;;;;6221441;23;19962;-83
2021/03/08 00:59:51;;;;;;;;;;;5.90;37.00;;;;;;6222501;23;19911;-83
2021/03/08 01:02:18;;;;;;;;;;;5.90;37.00;;;;;;6194064;23;19915;-83
2021/03/08 01:04:51;;;;;;;;;;;5.90;37.10;;;;;;6195344;23;19954;-83
2021/03/08 01:07:17;;;;;;;;;;;5.90;37.10;;;;;;6195713;23;19907;-83
2021/03/08 01:09:43;;;;;;;;;;;5.90;37.10;;;;;;6194845;23;20207;-83
2021/03/08 01:12:08;;;;;;;;;;;5.90;37.10;;;;;;6222503;23;19904;-83
2021/03/08 01:14:34;;;;;;;;;;;5.90;37.10;;;;;;6220369;23;19904;-83
2021/03/08 01:16:59;;;;;;;;;;;5.90;37.10;;;;;;6222880;23;19914;-82
2021/03/08 01:19:26;;;;;;;;;;;5.90;37.20;;;;;;6194461;23;19904;-83
2021/03/08 01:21:51;;;;;;;;;;;5.90;37.20;;;;;;6221851;23;19905;-82
2021/03/08 01:24:16;;;;;;;;;;;5.90;37.30;;;;;;6220589;23;19907;-82
2021/03/08 01:26:44;;;;;;;;;;;5.90;37.30;;;;;;6194180;23;20243;-83
2021/03/08 01:29:11;;;;;;;;;;;5.90;37.30;;;;;;6194178;23;20485;-82
2021/03/08 01:31:37;;;;;;;;;;;5.90;37.30;;;;;;6220175;23;19918;-83
2021/03/08 01:34:02;;;;;;;;;;;5.90;37.30;;;;;;6221141;23;19931;-84
2021/03/08 01:36:28;;;;;;;;;;;5.90;37.30;;;;;;6194739;23;19919;-82
2021/03/08 01:38:53;;;;;;;;;;;5.90;37.30;;;;;;6220831;23;19903;-83
2021/03/08 01:41:19;;;;;;;;;;;5.90;37.30;;;;;;6222495;23;19911;-83
2021/03/08 01:43:44;;;;;;;;;;;5.80;37.30;;;;;;6220859;23;19930;-83
2021/03/08 01:46:10;;;;;;;;;;;5.80;37.30;;;;;;6194441;23;19918;-83
2021/03/08 01:48:35;;;;;;;;;;;5.80;37.30;;;;;;6219890;23;19904;-82
2021/03/08 01:51:01;;;;;;;;;;;5.80;37.40;;;;;;6221062;23;19915;-83
2021/03/08 01:53:27;;;;;;;;;;;5.70;37.40;;;;;;6221298;23;19908;-82
2021/03/08 01:55:53;;;;;;;;;;;5.70;37.50;;;;;;6220376;23;19904;-83
2021/03/08 01:58:18;;;;;;;;;;;5.70;37.60;;;;;;6195365;23;19966;-83
2021/03/08 02:00:44;;;;;;;;;;;5.70;37.60;;;;;;6193353;23;19904;-83
2021/03/08 02:03:09;;;;;;;;;;;5.60;37.50;;;;;;6194674;23;19931;-82
2021/03/08 02:05:36;;;;;;;;;;;5.60;37.60;;;;;;6194549;23;19908;-83
2021/03/08 02:08:04;;;;;;;;;;;5.60;37.70;;;;;;6220839;23;19915;-83
2021/03/08 02:10:30;;;;;;;;;;;5.50;37.70;;;;;;6220872;23;19911;-83
2021/03/08 02:13:19;;;;;;;;;;;5.40;38.30;;;;;;6220491;23;19904;-82
2021/03/08 02:16:00;;;;;;;;;;;5.40;37.70;;;;;;6171647;23;19904;-82
2021/03/08 02:18:42;;;;;;;;;;;5.40;37.70;;;;;;6193837;23;19914;-82
2021/03/08 02:21:19;;;;;;;;;;;5.40;37.70;;;;;;6222442;23;19904;-82
2021/03/08 02:23:54;;;;;;;;;;;5.40;37.70;;;;;;6219981;23;19951;-83
2021/03/08 02:26:26;;;;;;;;;;;5.40;37.70;;;;;;6221519;23;20251;-83
2021/03/08 02:29:02;;;;;;;;;;;5.40;37.70;;;;;;6220570;23;19904;-83
2021/03/08 02:31:28;;;;;;;;;;;5.30;37.70;;;;;;6194527;23;19908;-83
2021/03/08 02:33:55;;;;;;;;;;;5.30;37.80;;;;;;6194571;23;19904;-83
2021/03/08 02:36:23;;;;;;;;;;;5.30;37.90;;;;;;6194443;23;19919;-82
2021/03/08 02:38:59;;;;;;;;;;;5.30;37.90;;;;;;6221315;23;20265;-83
2021/03/08 02:41:25;;;;;;;;;;;5.30;37.90;;;;;;6220700;23;20394;-83
2021/03/08 02:43:57;;;;;;;;;;;5.20;37.80;;;;;;6220813;23;19978;-83
2021/03/08 02:46:27;;;;;;;;;;;5.20;37.90;;;;;;6219860;23;19939;-82
2021/03/08 02:48:54;;;;;;;;;;;5.20;38.00;;;;;;6195400;23;20103;-82
2021/03/08 02:51:22;;;;;;;;;;;5.20;38.00;;;;;;6194404;23;19908;-83
2021/03/08 02:53:49;;;;;;;;;;;5.20;38.00;;;;;;6224559;23;19904;-82
2021/03/08 02:56:18;;;;;;;;;;;5.20;38.00;;;;;;6220259;23;19912;-82
2021/03/08 02:58:46;;;;;;;;;;;5.20;38.00;;;;;;6193018;23;19939;-83
2021/03/08 03:01:12;;;;;;;;;;;5.20;38.10;;;;;;6194788;23;20269;-83
2021/03/08 03:03:39;;;;;;;;;;;5.20;38.00;;;;;;6220705;23;19911;-82
2021/03/08 03:06:05;;;;;;;;;;;5.20;38.00;;;;;;6221458;23;20349;-82
2021/03/08 03:08:31;;;;;;;;;;;5.20;38.10;;;;;;6219722;23;19982;-83
2021/03/08 03:10:57;;;;;;;;;;;5.20;38.20;;;;;;6221396;23;20247;-83
2021/03/08 03:13:31;;;;;;;;;;;5.20;38.20;;;;;;6220547;23;19962;-83
2021/03/08 03:15:57;;;;;;;;;;;5.20;38.20;;;;;;6219937;23;19911;-83
2021/03/08 03:18:26;;;;;;;;;;;5.20;38.20;;;;;;6193840;23;19904;-82
2021/03/08 03:20:52;;;;;;;;;;;5.20;38.20;;;;;;6194636;23;19930;-82
2021/03/08 03:23:20;;;;;;;;;;;5.20;38.20;;;;;;6194872;23;20001;-83
2021/03/08 03:25:46;;;;;;;;;;;5.10;38.20;;;;;;6227158;23;20421;-82
2021/03/08 03:28:12;;;;;;;;;;;5.10;38.30;;;;;;6209028;23;19904;-83
2021/03/08 03:30:37;;;;;;;;;;;5.00;38.20;;;;;;6195614;23;19911;-83
2021/03/08 03:33:03;;;;;;;;;;;5.00;38.30;;;;;;6193323;23;19926;-82
2021/03/08 03:35:31;;;;;;;;;;;5.00;38.40;;;;;;6220759;23;19904;-83
2021/03/08 03:37:59;;;;;;;;;;;4.90;38.40;;;;;;6219922;23;20357;-84
2021/03/08 03:40:24;;;;;;;;;;;4.90;38.40;;;;;;6194059;23;19952;-84
2021/03/08 03:42:54;;;;;;;;;;;4.90;38.50;;;;;;6194023;23;19912;-83
2021/03/08 03:45:20;;;;;;;;;;;4.80;38.60;;;;;;6193360;23;19942;-84
2021/03/08 03:47:47;;;;;;;;;;;4.80;38.70;;;;;;6194602;23;20319;-82
2021/03/08 03:50:13;;;;;;;;;;;4.80;38.80;;;;;;6193079;23;20007;-81
2021/03/08 03:52:39;;;;;;;;;;;4.80;38.80;;;;;;6221121;23;19904;-83
2021/03/08 03:55:08;;;;;;;;;;;4.70;38.70;;;;;;6195126;23;19904;-84
2021/03/08 03:57:38;;;;;;;;;;;4.70;38.80;;;;;;6196255;23;20315;-83
2021/03/08 04:00:05;;;;;;;;;;;4.70;38.80;;;;;;6196774;23;19903;-83
2021/03/08 04:02:37;;;;;;;;;;;4.70;38.90;;;;;;6197387;23;19990;-82
2021/03/08 04:05:02;;;;;;;;;;;4.70;38.90;;;;;;6197387;23;19903;-83
2021/03/08 04:07:31;;;;;;;;;;;4.70;39.00;;;;;;6198256;23;19943;-81
2021/03/08 04:09:57;;;;;;;;;;;4.70;39.00;;;;;;6196380;23;19904;-83
2021/03/08 04:12:25;;;;;;;;;;;4.80;39.10;;;;;;6195954;23;19946;-84
2021/03/08 04:14:52;;;;;;;;;;;4.80;39.20;;;;;;6221561;23;20254;-82
2021/03/08 04:17:21;;;;;;;;;;;4.80;39.20;;;;;;6196263;23;19904;-83
2021/03/08 04:19:50;;;;;;;;;;;4.80;39.20;;;;;;6222762;23;19943;-82
2021/03/08 04:22:15;;;;;;;;;;;4.70;39.30;;;;;;6223453;23;19927;-82
2021/03/08 04:24:44;;;;;;;;;;;4.70;39.40;;;;;;6193786;23;19904;-83
2021/03/08 04:27:11;;;;;;;;;;;4.70;39.40;;;;;;6196067;23;19934;-82
2021/03/08 04:29:40;;;;;;;;;;;4.70;39.50;;;;;;6195121;23;19904;-82
2021/03/08 04:32:07;;;;;;;;;;;4.60;39.40;;;;;;6195619;23;19954;-83
2021/03/08 04:34:36;;;;;;;;;;;4.60;39.50;;;;;;6194950;23;19908;-83
2021/03/08 04:37:02;;;;;;;;;;;4.50;39.50;;;;;;6222316;23;19948;-82
2021/03/08 04:39:28;;;;;;;;;;;4.50;39.60;;;;;;6196151;23;19927;-83
2021/03/08 04:41:54;;;;;;;;;;;4.50;39.60;;;;;;6195399;23;19912;-82
2021/03/08 04:44:20;;;;;;;;;;;4.50;39.70;;;;;;6222267;23;20289;-83
2021/03/08 04:46:49;;;;;;;;;;;4.50;39.70;;;;;;6196399;23;19908;-83
2021/03/08 04:49:15;;;;;;;;;;;4.40;39.70;;;;;;6222435;23;19904;-84
2021/03/08 04:51:40;;;;;;;;;;;4.40;39.80;;;;;;6223345;23;19904;-83
2021/03/08 04:54:07;;;;;;;;;;;4.40;39.80;;;;;;6194222;23;19904;-83
2021/03/08 04:56:32;;;;;;;;;;;4.40;39.80;;;;;;6198648;23;20003;-83
2021/03/08 04:58:58;;;;;;;;;;;4.40;39.90;;;;;;6223737;23;19904;-83
2021/03/08 05:01:26;;;;;;;;;;;4.30;39.90;;;;;;6222727;23;20005;-82
2021/03/08 05:03:53;;;;;;;;;;;4.30;39.90;;;;;;6196319;23;19926;-83
2021/03/08 05:06:22;;;;;;;;;;;4.30;40.00;;;;;;6220964;23;19912;-83
2021/03/08 05:08:47;;;;;;;;;;;4.30;40.10;;;;;;6222227;23;19915;-82
2021/03/08 05:11:13;;;;;;;;;;;4.20;40.00;;;;;;6195211;23;19904;-82
2021/03/08 05:13:41;;;;;;;;;;;4.20;40.00;;;;;;6195055;23;19904;-83
2021/03/08 05:16:08;;;;;;;;;;;4.20;40.10;;;;;;6220816;23;19954;-82
2021/03/08 05:18:34;;;;;;;;;;;4.10;40.60;;;;;;6221204;23;19911;-83
2021/03/08 05:21:08;;;;;;;;;;;4.10;40.10;;;;;;6222561;23;19908;-83
2021/03/08 05:23:33;;;;;;;;;;;4.00;40.10;;;;;;6221718;23;20404;-83
2021/03/08 05:26:04;;;;;;;;;;;4.00;40.20;;;;;;6221499;23;19915;-83
2021/03/08 05:28:31;;;;;;;;;;;3.90;40.20;;;;;;6194553;23;19908;-83
2021/03/08 05:30:59;;;;;;;;;;;3.90;40.20;;;;;;6195079;23;20377;-82
2021/03/08 05:33:25;;;;;;;;;;;3.80;40.20;;;;;;6222324;23;19915;-83
2021/03/08 05:35:55;;;;;;;;;;;3.80;40.20;;;;;;6193846;23;19904;-83
2021/03/08 05:38:27;;;;;;;;;;;3.80;40.30;;;;;;6195607;23;20398;-83
2021/03/08 05:40:52;;;;;;;;;;;3.70;40.30;;;;;;6221719;23;19922;-83
2021/03/08 05:43:18;;;;;;;;;;;3.70;40.30;;;;;;6197148;23;19943;-82
2021/03/08 05:45:55;;;;;;;;;;;3.70;40.40;;;;;;6193606;23;19917;-83
2021/03/08 05:48:40;;;;;;;;;;;3.70;40.50;;;;;;6196436;23;20001;-81
2021/03/08 05:51:22;;;;;;;;;;;3.70;40.50;;;;;;6194710;23;19903;-82
2021/03/08 05:54:06;;;;;;;;;;;3.70;40.60;;;;;;6195769;23;20361;-82
2021/03/08 05:56:50;;;;;;;;;;;3.70;41.20;;;;;;6221322;23;19927;-83
2021/03/08 05:59:27;;;;;;;;;;;3.70;40.70;;;;;;6221389;23;19927;-83
2021/03/08 06:02:04;;;;;;;;;;;3.70;40.70;;;;;;6195739;23;20459;-83
2021/03/08 06:04:43;;;;;;;;;;;3.70;40.80;;;;;;6220275;23;19908;-84
2021/03/08 06:07:21;;;;;;;;;;;3.60;40.80;;;;;;6222556;23;19908;-83
2021/03/08 06:10:16;;;;;;;;;;;3.70;40.80;;;;;;6222078;23;19904;-84
2021/03/08 06:12:43;;;;;;;;;;;3.70;40.80;;;;;;6190138;23;19911;-83
2021/03/08 06:15:10;;;;;;;;;;;3.70;40.90;;;;;;6193363;23;19908;-83
2021/03/08 06:17:37;;;;;;;;;;;3.70;40.90;;;;;;6194518;23;19938;-83
2021/03/08 06:20:06;;;;;;;;;;;3.80;41.00;;;;;;6221630;23;19904;-83
2021/03/08 06:22:32;;;;;;;;;;;3.90;41.00;;;;;;6222642;23;19958;-84
2021/03/08 06:24:58;;;;;;;;;;;3.90;41.00;;;;;;6222206;23;20169;-84
2021/03/08 06:27:23;;;;;;;;;;;4.00;41.10;;;;;;6194819;23;19944;-84
2021/03/08 06:29:51;;;;;;;;;;;4.10;41.10;;;;;;6222145;23;19912;-84
2021/03/08 06:32:16;;;;;;;;;;;4.10;41.00;;;;;;6220968;23;19903;-84
2021/03/08 06:34:42;;;;;;;;;;;4.20;41.10;;;;;;6221225;23;20334;-83
2021/03/08 06:37:09;;;;;;;;;;;4.20;41.20;;;;;;6195106;23;19904;-83
2021/03/08 06:39:35;;;;;;;;;;;4.20;41.20;;;;;;6194639;23;19904;-84
2021/03/08 06:42:09;;;;;;;;;;;4.30;41.20;;;;;;6221177;23;19911;-82
2021/03/08 06:44:57;;;;;;;;;;;4.40;41.20;;;;;;6193032;23;19904;-84
2021/03/08 06:47:52;;;;;;;;;;;;;;;;;;;;;
2021/03/08 07:00:11;;;;;;;;;;;5.10;41.40;;;;;;6096892;23;19972;-85
2021/03/08 07:03:01;;;;;;;;;;;;;;;;;;;;;
2021/03/08 07:12:27;;;;;;;;;;;5.70;41.20;;;;;;6083245;23;19936;-84
2021/03/08 07:15:05;;;;;;;;;;;5.90;41.20;;;;;;6214677;23;19955;-83
2021/03/08 07:18:02;;;;;;;;;;;;;;;;;;;;;
2021/03/08 07:23:26;;;;;;;;;;;6.40;40.90;;;;;;6146851;23;20336;-84
2021/03/08 07:33:03;;;;;;;;;;;7.10;40.80;;;;;;6052964;23;19912;-83
2021/03/08 07:42:11;;;;;;;;;;;8.40;40.50;;;;;;6155812;23;19986;-84
2021/03/08 07:44:55;;;;;;;;;;;8.70;40.40;;;;;;6132643;23;19911;-82
2021/03/08 07:51:03;;;;;;;;;;;;;;;;;;;;;
2021/03/08 08:36:36;;;;;;;;;;;11.40;39.60;;;;;;6169130;23;19904;-82
2021/03/08 08:39:03;;;;;;;;;;;11.30;39.70;;;;;;6205938;23;19930;-84
2021/03/08 08:41:34;;;;;;;;;;;11.10;39.90;;;;;;6206387;23;19915;-83
2021/03/08 08:44:09;;;;;;;;;;;10.80;40.10;;;;;;6233338;23;19979;-84
2021/03/08 08:46:39;;;;;;;;;;;10.50;40.50;;;;;;6234374;23;20370;-82
2021/03/08 08:49:53;;;;;;;;;;;;;;;;;;;;;
2021/03/08 08:52:48;;;;;;;;;;;;;;;;;;;;;
2021/03/08 08:58:48;;;;;;;;;;;9.90;42.10;;;;;;6212862;23;19954;-82
2021/03/08 09:07:22;;;;;;;;;;;9.90;42.30;;;;;;6200642;23;19943;-81
2021/03/08 09:09:50;;;;;;;;;;;10.00;41.50;;;;;;6193801;23;19904;-82
2021/03/08 09:12:45;;;;;;;;;;;10.10;41.40;;;;;;6220140;23;20327;-84
2021/03/08 09:15:21;;;;;;;;;;;10.30;41.50;;;;;;6161880;23;19926;-83
2021/03/08 09:18:09;;;;;;;;;;;10.60;41.40;;;;;;6220643;23;19915;-82
2021/03/08 09:20:45;;;;;;;;;;;10.90;41.30;;;;;;6193226;23;19930;-83
2021/03/08 09:23:27;;;;;;;;;;;11.30;41.20;;;;;;6193543;23;20417;-83
2021/03/08 09:26:00;;;;;;;;;;;11.60;41.10;;;;;;6193516;23;19935;-84
2021/03/08 09:28:49;;;;;;;;;;;12.10;41.00;;;;;;6195272;23;19991;-83
2021/03/08 09:31:21;;;;;;;;;;;12.50;40.90;;;;;;6192607;23;20330;-83
2021/03/08 09:33:47;;;;;;;;;;;12.90;40.70;;;;;;6192896;23;19939;-84
2021/03/08 09:36:12;;;;;;;;;;;13.30;40.70;;;;;;6193564;23;19911;-84
2021/03/08 09:38:50;;;;;;;;;;;13.50;40.50;;;;;;6223363;23;19911;-82
2021/03/08 09:51:09;;;;;;;;;;;14.30;40.50;;;;;;6153639;23;19919;-82
2021/03/08 09:53:36;;;;;;;;;;;14.50;40.60;;;;;;6217898;23;19904;-84
2021/03/08 09:56:03;;;;;;;;;;;14.60;40.60;;;;;;6218430;23;19915;-83
2021/03/08 09:58:31;;;;;;;;;;;14.70;40.60;;;;;;6228317;23;19983;-83
2021/03/08 10:01:16;;;;;;;;;;;14.70;40.60;;;;;;6196056;23;19962;-83
2021/03/08 10:04:11;;;;;;;;;;;14.70;40.70;;;;;;6198874;23;19904;-84
2021/03/08 10:07:04;;;;;;;;;;;;;;;;;;;;;
2021/03/08 10:10:35;;;;;;;;;;;15.10;40.80;;;;;;6185744;23;19983;-83
2021/03/08 10:15:55;;;;;;;;;;;15.30;40.60;;;;;;6154395;23;19979;-84
2021/03/08 10:18:32;;;;;;;;;;;15.30;40.70;;;;;;6192624;23;20370;-83
2021/03/08 10:33:19;;;;;;;;;;;15.00;40.90;;;;;;6196586;23;19911;-86
2021/03/08 10:38:36;;;;;;;;;;;14.60;41.00;;;;;;6219031;23;19904;-84
2021/03/08 10:44:41;;;;;;;;;;;;;;;;;;;;;
2021/03/08 10:53:31;;;;;;;;;;;13.80;41.50;;;;;;6195442;23;19908;-82
2021/03/08 10:57:12;;;;;;;;;;;;;;;;;;;;;
2021/03/08 11:08:54;;;;;;;;;;;;;;;;;;;;;
2021/03/08 11:43:33;;;;;;;;;;;;;;;;;;;;;
2021/03/08 11:45:59;;;;;;;;;;;12.40;42.40;;;;;;6246726;23;19957;-81
2021/03/08 11:48:28;;;;;;;;;;;12.50;42.30;;;;;;6248745;23;19908;-81
2021/03/08 11:50:54;;;;;;;;;;;12.50;42.20;;;;;;6218420;23;19911;-82
2021/03/08 11:53:22;;;;;;;;;;;12.50;42.30;;;;;;6243479;23;19904;-82
2021/03/08 11:55:50;;;;;;;;;;;12.40;42.20;;;;;;6217353;23;19908;-83
2021/03/08 12:23:06;;;;;;;;;;;12.50;42.70;;;;;;6210388;23;19923;-82
2021/03/08 12:25:52;;;;;;;;;;;12.70;42.70;;;;;;6219337;23;19908;-82
2021/03/08 12:28:41;;;;;;;;;;;12.90;42.60;;;;;;6217899;23;19922;-83
2021/03/08 12:31:33;;;;;;;;;;;;;;;;;;;;;
2021/03/08 13:19:04;;;;;;;;;;;16.70;42.10;;;;;;6167082;23;19916;-83
2021/03/08 13:56:25;;;;;;;;;;;15.90;42.50;;;;;;6203230;23;19942;-83
2021/03/08 14:34:30;;;;;;;;;;;15.10;42.50;;;;;;6187953;23;20302;-85
2021/03/08 14:37:53;;;;;;;;;;;14.90;42.50;;;;;;6216750;23;19919;-84
2021/03/08 15:12:54;;;;;;;;;;;16.00;42.60;;;;;;5942985;24;19907;-84
2021/03/08 15:22:04;;;;;;;;;;;;;;;;;;;;;
2021/03/08 15:25:21;;;;;;;;;;;;;;;;;;;;;
2021/03/08 15:27:56;;;;;;;;;;;14.40;43.00;;;;;;6212690;23;19986;-83
2021/03/08 16:30:32;;;;;;;;;;;10.60;45.00;;;;;;6148883;23;19919;-83
2021/03/08 16:42:54;;;;;;;;;;;;;;;;;;;;;
2021/03/08 17:00:22;;;;;;;;;;;9.50;48.10;;;;;;6178695;23;19910;-82
2021/03/08 17:39:55;;;;;;;;;;;8.20;54.10;;;;;;6209823;23;19903;-83
2021/03/08 18:01:07;;;;;;;;;;;7.90;56.90;;;;;;6209250;23;19950;-82
2021/03/08 18:07:20;;;;;;;;;;;7.80;58.20;;;;;;6205304;23;19904;-82
2021/03/08 18:10:08;;;;;;;;;;;7.70;58.80;;;;;;6215762;23;19904;-81
2021/03/08 18:13:02;;;;;;;;;;;;;;;;;;;;;
2021/03/08 18:21:49;;;;;;;;;;;7.50;62.10;;;;;;6208252;23;19954;-82
2021/03/08 18:24:43;;;;;;;;;;;7.40;62.00;;;;;;6219822;23;19904;-82
2021/03/08 18:33:41;;;;;;;;;;;7.40;62.40;;;;;;6208810;23;19904;-81
2021/03/08 18:36:29;;;;;;;;;;;7.40;63.30;;;;;;6197405;23;20239;-83
2021/03/08 18:39:14;;;;;;;;;;;7.40;64.20;;;;;;6193244;23;19911;-83
2021/03/08 18:45:39;;;;;;;;;;;;;;;;;;;;;
2021/03/08 18:51:23;;;;;;;;;;;7.30;65.70;;;;;;6214376;23;19908;-81
2021/03/08 18:54:09;;;;;;;;;;;7.30;65.70;;;;;;6194160;23;19988;-83
2021/03/08 18:59:43;;;;;;;;;;;7.30;65.80;;;;;;6209706;23;19904;-82
2021/03/08 19:02:11;;;;;;;;;;;7.40;65.80;;;;;;6192651;23;19931;-83
2021/03/08 19:04:38;;;;;;;;;;;7.40;65.60;;;;;;6225260;23;19904;-83
2021/03/08 19:07:13;;;;;;;;;;;;;;;;;;;;;
2021/03/08 19:09:39;;;;;;;;;;;7.40;65.40;;;;;;6229219;23;19943;-82
2021/03/08 19:12:05;;;;;;;;;;;7.50;65.30;;;;;;6199810;23;19904;-81
2021/03/08 19:14:31;;;;;;;;;;;7.50;65.30;;;;;;6223393;23;19904;-81
2021/03/08 19:16:56;;;;;;;;;;;7.50;65.20;;;;;;6220298;23;19920;-81
2021/03/08 19:19:22;;;;;;;;;;;7.60;65.30;;;;;;6196114;23;20323;-82
2021/03/08 19:21:47;;;;;;;;;;;7.60;65.20;;;;;;6221526;23;20246;-83
2021/03/08 19:24:13;;;;;;;;;;;7.60;65.20;;;;;;6218333;23;19904;-80
2021/03/08 19:26:38;;;;;;;;;;;7.60;65.10;;;;;;6218432;23;19904;-82
2021/03/08 19:29:04;;;;;;;;;;;7.60;65.10;;;;;;6220187;23;19911;-82
2021/03/08 19:31:30;;;;;;;;;;;7.60;65.20;;;;;;6195310;23;19982;-82
2021/03/08 19:33:55;;;;;;;;;;;7.50;65.10;;;;;;6219493;23;19912;-81
2021/03/08 19:36:21;;;;;;;;;;;7.50;65.20;;;;;;6221134;23;19919;-79
2021/03/08 19:38:46;;;;;;;;;;;7.60;65.30;;;;;;6193159;23;19911;-80
2021/03/08 19:41:13;;;;;;;;;;;7.60;65.30;;;;;;6218478;23;19912;-80
2021/03/08 19:43:38;;;;;;;;;;;7.60;65.40;;;;;;6219859;23;20427;-80
2021/03/08 19:46:04;;;;;;;;;;;7.50;65.30;;;;;;6215840;23;19911;-79
2021/03/08 19:48:29;;;;;;;;;;;7.50;65.40;;;;;;6192551;23;19911;-79
2021/03/08 19:50:55;;;;;;;;;;;7.50;65.50;;;;;;6193790;23;19939;-80
2021/03/08 19:53:20;;;;;;;;;;;7.50;65.60;;;;;;6228543;23;19904;-81
2021/03/08 19:55:46;;;;;;;;;;;7.50;65.70;;;;;;6219476;23;19975;-81
2021/03/08 19:58:11;;;;;;;;;;;7.50;65.80;;;;;;6217145;23;20349;-81
2021/03/08 20:00:37;;;;;;;;;;;7.50;66.20;;;;;;6193736;23;19904;-81
2021/03/08 20:03:02;;;;;;;;;;;7.50;66.00;;;;;;6193014;23;20251;-81
2021/03/08 20:05:28;;;;;;;;;;;7.50;66.00;;;;;;6192349;23;19903;-80
2021/03/08 20:07:53;;;;;;;;;;;7.50;66.10;;;;;;6218137;23;19915;-80
2021/03/08 20:10:19;;;;;;;;;;;7.50;66.20;;;;;;6191577;23;19986;-80
2021/03/08 20:12:44;;;;;;;;;;;7.50;66.30;;;;;;6219293;23;19904;-82
2021/03/08 20:15:12;;;;;;;;;;;7.50;66.40;;;;;;6193122;23;19949;-84
2021/03/08 20:17:38;;;;;;;;;;;7.50;66.50;;;;;;6193327;23;19908;-81
2021/03/08 20:20:14;;;;;;;;;;;7.50;66.70;;;;;;6193369;23;20481;-81
2021/03/08 20:22:40;;;;;;;;;;;7.50;66.80;;;;;;6192301;23;20015;-81
2021/03/08 20:25:07;;;;;;;;;;;7.50;66.90;;;;;;6192346;23;19908;-80
2021/03/08 20:27:35;;;;;;;;;;;7.50;67.00;;;;;;6218519;23;19919;-81
2021/03/08 20:30:03;;;;;;;;;;;7.50;67.10;;;;;;6192887;23;19938;-81
2021/03/08 20:32:28;;;;;;;;;;;7.50;67.20;;;;;;6218867;23;19928;-82
2021/03/08 20:34:59;;;;;;;;;;;7.50;67.50;;;;;;6218523;23;20326;-81
2021/03/08 20:37:35;;;;;;;;;;;7.40;67.40;;;;;;6195447;23;19920;-81
2021/03/08 20:40:13;;;;;;;;;;;;;;;;;;;;;
2021/03/08 20:43:18;;;;;;;;;;;7.40;67.70;;;;;;6223202;23;19943;-80
2021/03/08 20:49:12;;;;;;;;;;;7.40;68.00;;;;;;6212534;23;19977;-81
2021/03/08 21:07:16;;;;;;;;;;;7.30;68.90;;;;;;6211002;23;19907;-82
2021/03/08 21:19:22;;;;;;;;;;;7.30;69.60;;;;;;6215857;23;19904;-81
2021/03/08 21:25:37;;;;;;;;;;;7.30;70.00;;;;;;6213730;23;19912;-82
2021/03/08 21:28:02;;;;;;;;;;;7.30;70.20;;;;;;6182799;23;20357;-82
2021/03/08 21:30:39;;;;;;;;;;;;;;;;;;;;;
2021/03/08 21:33:05;;;;;;;;;;;7.20;70.40;;;;;;6221951;23;19927;-81
2021/03/08 21:35:30;;;;;;;;;;;7.20;70.60;;;;;;6220708;23;19904;-83
2021/03/08 21:37:56;;;;;;;;;;;7.20;70.70;;;;;;6219878;23;19927;-81
2021/03/08 21:40:22;;;;;;;;;;;7.20;70.90;;;;;;6194524;23;19904;-85
2021/03/08 21:42:48;;;;;;;;;;;7.20;71.00;;;;;;6194025;23;19931;-82
2021/03/08 21:45:14;;;;;;;;;;;7.10;71.20;;;;;;6219932;23;19904;-80
2021/03/08 21:47:40;;;;;;;;;;;7.10;71.40;;;;;;6190198;23;19908;-81
2021/03/08 21:50:07;;;;;;;;;;;7.10;71.60;;;;;;6195024;23;19908;-84
2021/03/08 21:52:32;;;;;;;;;;;7.10;71.80;;;;;;6195303;23;19908;-83
2021/03/08 21:55:01;;;;;;;;;;;7.00;72.00;;;;;;6219187;23;19904;-82
2021/03/08 21:57:54;;;;;;;;;;;;;;;;;;;;;
2021/03/08 22:00:20;;;;;;;;;;;7.00;72.50;;;;;;6220387;23;19942;-81
2021/03/08 22:02:46;;;;;;;;;;;7.00;72.80;;;;;;6221854;23;19962;-82
2021/03/08 22:05:15;;;;;;;;;;;7.00;73.00;;;;;;6192664;23;19983;-81
2021/03/08 22:07:41;;;;;;;;;;;7.00;73.30;;;;;;6222204;23;20045;-83
2021/03/08 22:10:10;;;;;;;;;;;7.00;73.40;;;;;;6199489;23;20359;-83
2021/03/08 22:12:38;;;;;;;;;;;7.00;73.70;;;;;;6222819;23;19907;-82
2021/03/08 22:15:05;;;;;;;;;;;6.90;73.80;;;;;;6196014;23;19911;-82
2021/03/08 22:17:30;;;;;;;;;;;7.00;74.00;;;;;;6194850;23;19908;-81
2021/03/08 22:19:58;;;;;;;;;;;7.00;74.10;;;;;;6197275;23;20007;-81
2021/03/08 22:22:23;;;;;;;;;;;6.90;74.20;;;;;;6193530;23;19911;-81
2021/03/08 22:24:49;;;;;;;;;;;6.90;74.30;;;;;;6219251;23;20323;-81
2021/03/08 22:27:14;;;;;;;;;;;6.90;74.60;;;;;;6221080;23;20327;-82
2021/03/08 22:29:40;;;;;;;;;;;6.80;74.70;;;;;;6193623;23;19989;-83
2021/03/08 22:32:47;;;;;;;;;;;6.80;74.90;;;;;;6221043;23;19908;-84
2021/03/08 22:35:14;;;;;;;;;;;6.80;75.00;;;;;;6220543;23;19908;-84
2021/03/08 22:41:37;;;;;;;;;;;;;;;;;;;;;
2021/03/08 22:47:27;;;;;;;;;;;;;;;;;;;;;
2021/03/08 22:50:21;;;;;;;;;;;6.80;76.00;;;;;;6217320;23;19924;-83
2021/03/08 23:05:39;;;;;;;;;;;6.70;77.10;;;;;;6214362;23;19904;-82
2021/03/08 23:08:43;;;;;;;;;;;;;;;;;;;;;
2021/03/08 23:17:12;;;;;;;;;;;;;;;;;;;;;
2021/03/08 23:26:19;;;;;;;;;;;6.60;78.60;;;;;;6219120;23;20301;-83
2021/03/08 23:28:47;;;;;;;;;;;6.60;78.90;;;;;;6225653;23;19965;-82
2021/03/08 23:43:32;;;;;;;;;;;6.70;79.70;;;;;;6214936;23;19904;-83
2021/03/08 23:46:00;;;;;;;;;;;6.70;79.80;;;;;;6198913;23;19923;-82
2021/03/08 23:48:26;;;;;;;;;;;6.70;80.00;;;;;;6225771;23;19955;-82
2021/03/08 23:50:52;;;;;;;;;;;6.70;80.10;;;;;;6226684;23;19919;-82
2021/03/08 23:53:17;;;;;;;;;;;6.70;80.20;;;;;;6226083;23;20346;-83
2021/03/08 23:55:49;;;;;;;;;;;6.70;80.40;;;;;;6228281;23;20369;-82
2021/03/08 23:58:14;;;;;;;;;;;6.70;80.70;;;;;;6201381;23;19911;-82
